createdAt,value
2019-02-05T00:00:56.810Z,24.83
2019-02-05T00:03:26.470Z,20.73
2019-02-05T00:05:55.874Z,21.33
2019-02-05T00:08:26.027Z,22.57
2019-02-05T00:10:55.942Z,22.90
2019-02-05T00:13:25.242Z,25.90
2019-02-05T00:15:54.933Z,21.63
2019-02-05T00:18:24.127Z,20.33
2019-02-05T00:20:53.853Z,22.47
2019-02-05T00:23:23.472Z,18.27
2019-02-05T00:25:53.521Z,25.40
2019-02-05T00:28:23.300Z,21.47
2019-02-05T00:30:52.705Z,22.57
2019-02-05T00:33:21.915Z,20.30
2019-02-05T00:35:51.622Z,20.80
2019-02-05T00:38:21.281Z,19.33
2019-02-05T00:40:50.673Z,19.30
2019-02-05T00:43:20.263Z,21.13
2019-02-05T00:45:49.579Z,21.23
2019-02-05T00:48:19.257Z,20.47
2019-02-05T00:50:48.495Z,21.83
2019-02-05T00:53:18.046Z,18.40
2019-02-05T00:55:47.261Z,20.57
2019-02-05T00:58:16.511Z,18.30
2019-02-05T01:00:45.642Z,18.67
2019-02-05T01:03:14.826Z,18.57
2019-02-05T01:05:44.046Z,17.83
2019-02-05T01:08:13.177Z,20.67
2019-02-05T01:10:42.398Z,17.40
2019-02-05T01:13:11.999Z,19.50
2019-02-05T01:15:41.370Z,18.37
2019-02-05T01:18:10.464Z,17.23
2019-02-05T01:20:39.635Z,17.43
2019-02-05T01:23:09.256Z,20.57
2019-02-05T01:25:38.973Z,16.17
2019-02-05T01:28:08.582Z,16.43
2019-02-05T01:30:38.234Z,17.83
2019-02-05T01:33:07.504Z,18.80
2019-02-05T01:35:36.647Z,20.13
2019-02-05T01:38:06.218Z,17.83
2019-02-05T01:40:35.449Z,18.13
2019-02-05T01:43:04.723Z,16.57
2019-02-05T01:45:33.950Z,15.17
2019-02-05T01:48:03.312Z,16.13
2019-02-05T01:50:32.575Z,16.43
2019-02-05T01:53:02.362Z,16.83
2019-02-05T01:55:31.640Z,18.57
2019-02-05T01:58:00.829Z,15.87
2019-02-05T02:00:31.176Z,17.23
2019-02-05T02:03:00.346Z,16.53
2019-02-05T02:05:30.054Z,19.83
2019-02-05T02:07:59.742Z,19.40
2019-02-05T02:10:29.270Z,16.20
2019-02-05T02:12:58.573Z,16.83
2019-02-05T02:15:28.450Z,18.00
2019-02-05T02:17:58.209Z,21.27
2019-02-05T02:20:28.011Z,18.67
2019-02-05T02:22:58.274Z,16.30
2019-02-05T02:25:29.041Z,16.43
2019-02-05T02:27:58.465Z,15.77
2019-02-05T02:30:33.855Z,16.30
2019-02-05T02:33:03.629Z,17.87
2019-02-05T02:35:33.214Z,17.73
2019-02-05T02:38:02.440Z,19.43
2019-02-05T02:40:32.073Z,18.63
2019-02-05T02:43:01.899Z,17.93
2019-02-05T02:45:31.241Z,18.40
2019-02-05T02:48:01.577Z,19.70
2019-02-05T02:50:31.522Z,19.17
2019-02-05T02:53:00.900Z,20.77
2019-02-05T02:55:30.234Z,25.40
2019-02-05T02:57:59.590Z,26.20
2019-02-05T03:00:28.832Z,25.10
2019-02-05T03:02:58.180Z,25.03
2019-02-05T03:05:28.123Z,22.93
2019-02-05T03:07:57.397Z,27.93
2019-02-05T03:10:27.431Z,32.97
2019-02-05T03:12:56.915Z,24.23
2019-02-05T03:15:27.021Z,26.37
2019-02-05T03:17:57.371Z,29.43
2019-02-05T03:20:26.619Z,28.83
2019-02-05T03:22:56.655Z,28.50
2019-02-05T03:25:32.230Z,30.20
2019-02-05T03:28:01.523Z,26.67
2019-02-05T03:30:31.252Z,28.13
2019-02-05T03:33:01.961Z,28.57
2019-02-05T03:35:31.730Z,32.67
2019-02-05T03:38:01.233Z,27.93
2019-02-05T03:40:52.414Z,30.90
2019-02-05T03:43:21.604Z,26.70
2019-02-05T03:45:50.914Z,32.27
2019-02-05T03:48:20.784Z,33.23
2019-02-05T03:50:54.297Z,32.20
2019-02-05T03:53:25.190Z,34.27
2019-02-05T03:56:01.830Z,33.27
2019-02-05T03:58:53.331Z,34.30
2019-02-05T04:01:40.170Z,36.67
2019-02-05T04:04:46.922Z,34.30
2019-02-05T04:07:23.858Z,32.07
2019-02-05T04:10:20.303Z,33.30
2019-02-05T04:13:11.679Z,33.93
2019-02-05T04:16:19.822Z,37.47
2019-02-05T04:19:11.217Z,32.17
2019-02-05T04:21:50.087Z,30.63
2019-02-05T04:24:40.323Z,29.93
2019-02-05T04:27:13.541Z,33.47
2019-02-05T04:29:59.918Z,31.67
2019-02-05T04:32:39.945Z,32.77
2019-02-05T04:35:21.150Z,33.97
2019-02-05T04:38:18.739Z,34.60
2019-02-05T04:41:00.350Z,33.20
2019-02-05T04:43:56.749Z,38.93
2019-02-05T04:46:51.252Z,33.93
2019-02-05T04:49:55.878Z,33.87
2019-02-05T04:52:47.426Z,35.20
2019-02-05T04:55:49.609Z,37.33
2019-02-05T04:58:38.654Z,31.83
2019-02-05T05:01:18.709Z,34.43
2019-02-05T05:04:03.715Z,37.03
2019-02-05T05:06:44.762Z,33.83
2019-02-05T05:09:33.914Z,32.73
2019-02-05T05:12:03.226Z,37.70
2019-02-05T05:14:32.422Z,34.53
2019-02-05T05:17:01.785Z,36.63
2019-02-05T05:19:31.790Z,38.50
2019-02-05T05:22:01.731Z,34.57
2019-02-05T05:24:31.784Z,36.17
2019-02-05T05:27:01.759Z,38.03
2019-02-05T05:29:33.160Z,33.70
2019-02-05T05:32:02.847Z,34.77
2019-02-05T05:34:32.157Z,34.97
2019-02-05T05:37:00.439Z,35.97
2019-02-05T05:39:29.911Z,38.03
2019-02-05T05:41:59.527Z,39.13
2019-02-05T05:44:28.838Z,35.63
2019-02-05T05:46:58.586Z,36.60
2019-02-05T05:49:27.895Z,38.30
2019-02-05T05:51:57.118Z,37.27
2019-02-05T05:54:26.744Z,34.20
2019-02-05T05:56:58.140Z,35.20
2019-02-05T05:59:27.911Z,37.53
2019-02-05T06:01:57.615Z,38.83
2019-02-05T06:04:27.123Z,43.17
2019-02-05T06:06:56.383Z,33.67
2019-02-05T06:09:25.991Z,39.30
2019-02-05T06:11:55.340Z,37.63
2019-02-05T06:14:24.526Z,37.60
2019-02-05T06:16:54.199Z,37.30
2019-02-05T06:19:23.718Z,39.13
2019-02-05T06:21:53.338Z,47.70
2019-02-05T06:24:23.211Z,40.00
2019-02-05T06:26:52.937Z,41.20
2019-02-05T06:29:22.899Z,40.03
2019-02-05T06:31:52.486Z,35.57
2019-02-05T06:34:22.406Z,37.23
2019-02-05T06:36:52.146Z,44.07
2019-02-05T06:39:21.891Z,38.33
2019-02-05T06:41:51.761Z,35.00
2019-02-05T06:44:21.507Z,40.53
2019-02-05T06:46:50.899Z,42.03
2019-02-05T06:49:20.664Z,41.57
2019-02-05T06:51:49.971Z,42.57
2019-02-05T06:54:19.513Z,37.23
2019-02-05T06:56:49.248Z,40.47
2019-02-05T06:59:18.993Z,41.00
2019-02-05T07:01:48.308Z,40.93
2019-02-05T07:04:17.533Z,39.70
2019-02-05T07:06:47.447Z,45.63
2019-02-05T07:09:16.818Z,43.07
2019-02-05T07:11:46.571Z,40.00
2019-02-05T07:14:16.554Z,38.30
2019-02-05T07:16:45.871Z,42.50
2019-02-05T07:19:15.596Z,44.40
2019-02-05T07:21:45.617Z,55.03
2019-02-05T07:24:15.384Z,46.43
2019-02-05T07:26:45.107Z,45.73
2019-02-05T07:29:14.818Z,37.17
2019-02-05T07:31:44.154Z,37.07
2019-02-05T07:34:13.319Z,36.43
2019-02-05T07:36:42.597Z,38.40
2019-02-05T07:39:12.337Z,38.97
2019-02-05T07:41:42.037Z,40.53
2019-02-05T07:44:11.859Z,41.53
2019-02-05T07:46:41.652Z,41.57
2019-02-05T07:49:11.614Z,39.50
2019-02-05T07:51:41.358Z,37.80
2019-02-05T07:54:10.659Z,40.00
2019-02-05T07:56:40.373Z,42.93
2019-02-05T07:59:10.646Z,42.73
2019-02-05T08:01:40.610Z,42.70
2019-02-05T08:04:10.322Z,42.37
2019-02-05T08:06:40.053Z,47.00
2019-02-05T08:09:10.809Z,41.23
2019-02-05T08:11:41.384Z,40.50
2019-02-05T08:14:10.821Z,41.20
2019-02-05T08:16:40.561Z,41.70
2019-02-05T08:19:10.330Z,43.10
2019-02-05T08:21:40.170Z,41.27
2019-02-05T08:24:09.994Z,42.13
2019-02-05T08:26:39.726Z,44.10
2019-02-05T08:29:21.137Z,46.17
2019-02-05T08:31:41.406Z,43.90
2019-02-05T08:34:10.698Z,44.30
2019-02-05T08:36:40.356Z,42.13
2019-02-05T08:39:10.666Z,44.37
2019-02-05T08:41:40.691Z,47.50
2019-02-05T08:44:10.634Z,43.87
2019-02-05T08:46:40.384Z,43.53
2019-02-05T08:49:10.085Z,42.67
2019-02-05T08:51:39.903Z,41.57
2019-02-05T08:54:10.920Z,39.57
2019-02-05T08:56:40.661Z,40.70
2019-02-05T08:59:09.963Z,43.17
2019-02-05T09:01:39.846Z,40.80
2019-02-05T09:04:09.555Z,42.03
2019-02-05T09:06:39.398Z,41.07
2019-02-05T09:09:08.871Z,44.63
2019-02-05T09:11:38.571Z,39.87
2019-02-05T09:14:10.997Z,46.57
2019-02-05T09:16:39.714Z,43.07
2019-02-05T09:19:09.887Z,39.10
2019-02-05T09:21:39.641Z,40.73
2019-02-05T09:24:09.392Z,41.50
2019-02-05T09:26:39.169Z,44.17
2019-02-05T09:29:08.438Z,41.00
2019-02-05T09:31:38.446Z,43.40
2019-02-05T09:34:08.229Z,41.37
2019-02-05T09:36:38.029Z,38.57
2019-02-05T09:39:08.224Z,40.80
2019-02-05T09:41:38.068Z,39.67
2019-02-05T09:44:07.848Z,35.77
2019-02-05T09:46:37.673Z,35.17
2019-02-05T09:49:07.659Z,36.97
2019-02-05T09:51:37.522Z,38.40
2019-02-05T09:54:07.489Z,38.57
2019-02-05T10:34:39.362Z,35.77
2019-02-05T10:37:08.737Z,33.10
2019-02-05T10:39:38.487Z,33.37
2019-02-05T10:42:08.408Z,36.80
2019-02-05T10:44:38.454Z,34.83
2019-02-05T10:47:08.265Z,35.37
2019-02-05T10:49:38.079Z,36.60
2019-02-05T10:52:07.385Z,33.57
2019-02-05T10:54:37.167Z,29.77
2019-02-05T10:57:06.928Z,33.87
2019-02-05T10:59:37.146Z,32.87
2019-02-05T11:02:07.086Z,33.77
2019-02-05T11:04:36.397Z,31.13
2019-02-05T11:07:06.118Z,28.37
2019-02-05T11:09:35.874Z,32.57
2019-02-05T11:12:05.824Z,34.73
2019-02-05T11:14:35.471Z,31.97
2019-02-05T11:17:05.091Z,34.47
2019-02-05T11:19:34.880Z,35.87
2019-02-05T11:22:04.703Z,37.73
2019-02-05T11:24:33.986Z,34.80
2019-02-05T11:27:04.278Z,34.80
2019-02-05T11:29:34.130Z,32.43
2019-02-05T11:32:04.392Z,36.37
2019-02-05T11:34:34.144Z,34.50
2019-02-05T11:37:04.794Z,31.43
2019-02-05T11:39:34.609Z,33.33
2019-02-05T11:42:04.435Z,33.83
2019-02-05T11:44:34.175Z,31.77
2019-02-05T11:47:04.449Z,36.20
2019-02-05T11:49:34.190Z,33.63
2019-02-05T11:52:04.472Z,31.57
2019-02-05T11:54:33.881Z,29.53
2019-02-05T11:57:03.602Z,32.17
2019-02-05T11:59:32.847Z,30.23
2019-02-05T12:02:02.148Z,31.93
2019-02-05T12:04:32.171Z,26.83
2019-02-05T12:07:02.059Z,29.97
2019-02-05T12:09:31.856Z,29.13
2019-02-05T12:12:01.606Z,36.27
2019-02-05T12:14:31.460Z,34.30
2019-02-05T12:17:01.576Z,28.10
2019-02-05T12:19:34.114Z,35.07
2019-02-05T12:22:04.888Z,31.57
2019-02-05T12:24:36.002Z,30.97
2019-02-05T12:27:07.270Z,33.83
2019-02-05T12:29:36.889Z,32.40
2019-02-05T12:32:06.894Z,32.83
2019-02-05T12:34:36.690Z,32.83
2019-02-05T12:37:06.447Z,31.70
2019-02-05T12:39:36.677Z,34.43
2019-02-05T12:42:07.108Z,33.30
2019-02-05T12:44:37.174Z,33.60
2019-02-05T12:47:07.490Z,33.13
2019-02-05T12:49:37.581Z,39.13
2019-02-05T12:52:07.474Z,39.87
2019-02-05T12:54:37.489Z,37.30
2019-02-05T12:57:06.791Z,41.10
2019-02-05T12:59:36.590Z,42.30
2019-02-05T13:02:06.444Z,36.90
2019-02-05T13:04:41.853Z,40.43
2019-02-05T13:07:13.735Z,41.53
2019-02-05T13:09:46.862Z,41.20
2019-02-05T13:12:18.714Z,43.77
2019-02-05T13:14:51.493Z,43.97
2019-02-05T13:17:26.914Z,41.27
2019-02-05T13:20:03.539Z,40.53
2019-02-05T13:22:38.699Z,35.63
2019-02-05T13:25:10.662Z,37.13
2019-02-05T13:27:41.279Z,37.30
2019-02-05T13:30:14.879Z,33.37
2019-02-05T13:32:44.178Z,40.67
2019-02-05T13:35:14.467Z,41.37
2019-02-05T13:37:44.381Z,35.10
2019-02-05T13:40:15.100Z,39.10
2019-02-05T13:42:44.828Z,37.10
2019-02-05T13:45:15.137Z,39.80
2019-02-05T13:47:44.876Z,45.57
2019-02-05T13:50:18.308Z,40.10
2019-02-05T13:52:48.681Z,40.30
2019-02-05T13:55:19.538Z,40.30
2019-02-05T13:57:49.335Z,37.27
2019-02-05T14:00:22.380Z,40.07
2019-02-05T14:02:53.890Z,40.80
2019-02-05T14:05:24.538Z,43.03
2019-02-05T14:07:54.349Z,43.97
2019-02-05T14:10:26.959Z,36.30
2019-02-05T14:12:57.439Z,40.90
2019-02-05T14:15:29.450Z,37.17
2019-02-05T14:17:59.263Z,36.17
2019-02-05T14:20:29.005Z,38.47
2019-02-05T14:22:58.782Z,43.60
2019-02-05T14:25:28.099Z,38.93
2019-02-05T14:27:57.895Z,37.97
2019-02-05T14:30:30.617Z,39.30
2019-02-05T14:32:59.874Z,39.03
2019-02-05T14:35:29.040Z,36.23
2019-02-05T14:37:58.706Z,35.50
2019-02-05T14:40:28.411Z,39.90
2019-02-05T14:42:58.532Z,38.10
2019-02-05T14:45:28.095Z,45.20
2019-02-05T14:48:00.605Z,34.83
2019-02-05T14:50:31.596Z,35.67
2019-02-05T14:53:00.956Z,33.77
2019-02-05T14:55:30.240Z,37.17
2019-02-05T14:58:00.007Z,39.17
2019-02-05T15:00:32.138Z,45.17
2019-02-05T15:03:02.357Z,37.93
2019-02-05T15:05:32.331Z,47.03
2019-02-05T15:08:02.073Z,40.77
2019-02-05T15:10:31.787Z,40.47
2019-02-05T15:13:01.751Z,38.47
2019-02-05T15:15:31.994Z,37.70
2019-02-05T15:18:01.412Z,38.77
2019-02-05T15:20:37.275Z,35.90
2019-02-05T15:23:07.374Z,42.87
2019-02-05T15:25:37.561Z,37.67
2019-02-05T15:28:07.456Z,39.37
2019-02-05T15:30:39.014Z,39.30
2019-02-05T15:33:37.643Z,39.80
2019-02-05T15:36:32.018Z,35.57
2019-02-05T15:39:01.717Z,40.43
2019-02-05T15:41:33.245Z,40.03
2019-02-05T15:44:03.073Z,43.53
2019-02-05T15:46:33.864Z,42.47
2019-02-05T15:49:03.516Z,38.73
2019-02-05T15:51:33.235Z,42.10
2019-02-05T15:54:02.866Z,41.57
2019-02-05T15:56:32.175Z,42.97
2019-02-05T15:59:01.423Z,35.87
2019-02-05T16:01:30.818Z,35.33
2019-02-05T16:04:00.210Z,35.23
2019-02-05T16:06:29.871Z,34.27
2019-02-05T16:08:59.531Z,40.20
2019-02-05T16:11:29.393Z,41.73
2019-02-05T16:13:58.667Z,40.23
2019-02-05T16:16:28.403Z,40.93
2019-02-05T16:18:58.157Z,40.50
2019-02-05T16:21:27.989Z,36.57
2019-02-05T16:23:58.236Z,45.43
2019-02-05T16:26:28.065Z,39.67
2019-02-05T16:28:57.261Z,39.67
2019-02-05T16:31:28.014Z,43.63
2019-02-05T16:33:58.202Z,40.50
2019-02-05T16:36:27.465Z,41.20
2019-02-05T16:38:57.073Z,50.13
2019-02-05T16:41:26.326Z,38.37
2019-02-05T16:43:55.567Z,38.60
2019-02-05T16:46:25.506Z,42.90
2019-02-05T16:48:54.716Z,54.33
2019-02-05T16:51:24.634Z,46.50
2019-02-05T16:53:54.157Z,43.10
2019-02-05T16:56:24.295Z,43.60
2019-02-05T16:58:53.977Z,40.43
2019-02-05T17:01:23.204Z,45.97
2019-02-05T17:03:53.858Z,45.30
2019-02-05T17:06:24.162Z,35.73
2019-02-05T17:08:54.220Z,39.47
2019-02-05T17:11:24.523Z,44.23
2019-02-05T17:13:55.048Z,39.17
2019-02-05T17:16:25.198Z,43.33
2019-02-05T17:18:55.157Z,42.57
2019-02-05T17:21:24.542Z,43.23
2019-02-05T17:23:53.728Z,42.60
2019-02-05T17:26:23.323Z,39.27
2019-02-05T17:28:54.072Z,38.53
2019-02-05T17:31:23.782Z,39.87
2019-02-05T17:33:53.708Z,41.23
2019-02-05T17:36:23.064Z,38.33
2019-02-05T17:38:52.695Z,35.00
2019-02-05T17:41:22.424Z,37.40
2019-02-05T17:43:52.263Z,39.13
2019-02-05T17:46:22.065Z,40.20
2019-02-05T17:48:51.350Z,38.17
2019-02-05T17:51:21.497Z,41.33
2019-02-05T17:53:51.178Z,39.63
2019-02-05T17:56:23.879Z,37.73
2019-02-05T17:58:53.910Z,41.20
2019-02-05T18:01:23.979Z,40.50
2019-02-05T18:03:53.852Z,37.03
2019-02-05T18:06:23.468Z,37.53
2019-02-05T18:08:53.133Z,39.70
2019-02-05T18:11:23.337Z,42.23
2019-02-05T18:13:52.757Z,40.23
2019-02-05T18:16:24.271Z,39.87
2019-02-05T18:18:54.427Z,44.10
2019-02-05T18:21:23.881Z,36.47
2019-02-05T18:23:56.334Z,45.00
2019-02-05T18:26:25.692Z,39.47
2019-02-05T18:28:55.283Z,40.30
2019-02-05T18:31:24.585Z,38.17
2019-02-05T18:33:54.221Z,40.63
2019-02-05T18:36:24.232Z,35.67
2019-02-05T18:38:53.547Z,43.70
2019-02-05T18:41:23.296Z,39.07
2019-02-05T18:43:52.584Z,38.10
2019-02-05T18:46:22.367Z,40.90
2019-02-05T18:49:04.270Z,40.47
2019-02-05T18:51:24.142Z,39.63
2019-02-05T18:53:54.112Z,36.53
2019-02-05T18:56:23.735Z,40.13
2019-02-05T18:58:53.500Z,36.93
2019-02-05T19:01:23.589Z,39.93
2019-02-05T19:03:53.682Z,43.10
2019-02-05T19:06:23.719Z,39.23
2019-02-05T19:08:54.086Z,39.93
2019-02-05T19:11:24.153Z,41.27
2019-02-05T19:13:54.701Z,39.03
2019-02-05T19:16:24.440Z,41.37
2019-02-05T19:18:54.354Z,37.30
2019-02-05T19:21:24.130Z,41.13
2019-02-05T19:24:07.962Z,45.83
2019-02-05T19:26:45.908Z,44.63
2019-02-05T19:29:19.051Z,41.87
2019-02-05T19:31:49.608Z,42.77
2019-02-05T19:34:18.951Z,43.43
2019-02-05T19:36:48.195Z,41.37
2019-02-05T19:39:17.882Z,42.60
2019-02-05T19:41:47.635Z,42.40
2019-02-05T19:44:17.374Z,44.00
2019-02-05T19:46:51.703Z,41.67
2019-02-05T19:49:23.692Z,42.83
2019-02-05T19:51:53.288Z,44.93
2019-02-05T19:54:22.793Z,51.53
2019-02-05T19:56:52.836Z,46.80
2019-02-05T19:59:23.333Z,52.80
2019-02-05T20:01:53.118Z,70.83
2019-02-05T20:04:22.886Z,47.60
2019-02-05T20:06:52.882Z,46.90
2019-02-05T20:09:22.873Z,46.50
2019-02-05T20:11:52.710Z,42.23
2019-02-05T20:14:22.398Z,43.83
2019-02-05T20:16:55.390Z,47.47
2019-02-05T20:19:25.480Z,42.40
2019-02-05T20:21:55.656Z,53.23
2019-02-05T20:24:25.455Z,47.10
2019-02-05T20:26:55.708Z,72.87
2019-02-05T20:29:30.915Z,47.73
2019-02-05T20:32:00.671Z,40.60
2019-02-05T20:34:29.875Z,45.23
2019-02-05T20:37:02.562Z,42.67
2019-02-05T20:39:31.828Z,46.40
2019-02-05T20:42:01.004Z,43.53
2019-02-05T20:44:30.756Z,40.60
2019-02-05T21:08:23.106Z,41.50
2019-02-05T21:10:53.801Z,49.20
2019-02-05T21:13:24.849Z,46.13
2019-02-05T21:15:54.957Z,47.90
2019-02-05T21:18:34.263Z,50.63
2019-02-05T21:21:07.170Z,54.97
2019-02-05T21:23:38.118Z,50.90
2019-02-05T21:26:10.749Z,46.43
2019-02-05T21:28:45.938Z,53.30
2019-02-05T21:31:16.020Z,46.77
2019-02-05T21:33:46.156Z,61.63
2019-02-05T21:39:41.032Z,58.00
2019-02-05T21:42:18.185Z,55.20
2019-02-05T21:44:55.753Z,58.73
2019-02-05T21:47:25.331Z,55.97
2019-02-05T21:49:55.781Z,56.07
2019-02-05T21:52:29.052Z,63.70
2019-02-05T21:55:14.122Z,58.60
2019-02-05T21:57:58.935Z,55.50
2019-02-05T22:00:29.208Z,51.67
2019-02-05T22:02:58.866Z,56.97
2019-02-05T22:05:28.333Z,56.70
2019-02-05T22:07:58.670Z,54.83
2019-02-05T22:10:28.763Z,53.70
2019-02-05T22:12:58.692Z,57.13
2019-02-05T22:15:28.719Z,52.70
2019-02-05T22:21:29.405Z,54.93
2019-02-05T22:23:59.085Z,58.97
2019-02-05T22:26:28.672Z,55.70
2019-02-05T22:28:58.607Z,57.27
2019-02-05T22:31:40.491Z,57.07
2019-02-05T22:34:39.414Z,57.53
2019-02-05T22:37:20.475Z,55.23
2019-02-05T22:40:00.325Z,57.53
2019-02-05T22:42:42.694Z,52.97
2019-02-05T22:45:19.975Z,52.90
2019-02-05T22:48:01.876Z,57.33
2019-02-05T22:50:38.918Z,57.83
2019-02-05T22:53:19.320Z,55.10
2019-02-05T22:56:03.566Z,60.10
2019-02-05T22:58:45.060Z,49.20
2019-02-05T23:01:32.720Z,57.77
2019-02-05T23:04:28.186Z,56.07
2019-02-05T23:10:51.664Z,53.63
2019-02-05T23:13:22.821Z,56.57
2019-02-05T23:16:01.679Z,55.90
2019-02-05T23:18:49.970Z,49.87
2019-02-05T23:21:33.173Z,55.13
2019-02-05T23:24:19.741Z,57.07
2019-02-05T23:27:01.590Z,51.07
2019-02-05T23:29:34.982Z,53.70
2019-02-05T23:32:04.801Z,51.67
2019-02-05T23:34:40.874Z,45.27
2019-02-05T23:37:17.943Z,42.63
2019-02-05T23:42:40.803Z,45.40
2019-02-05T23:45:26.718Z,48.77
2019-02-05T23:48:00.466Z,43.60
2019-02-05T23:50:30.124Z,61.40
2019-02-05T23:52:59.437Z,49.27
2019-02-05T23:55:29.176Z,51.63
2019-02-05T23:57:58.392Z,49.03
